createdAt,value
2018-03-29T00:01:30.723Z,4.80
2018-03-29T00:04:11.899Z,4.80
2018-03-29T00:06:38.120Z,4.90
2018-03-29T00:09:05.267Z,4.90
2018-03-29T00:11:31.556Z,4.90
2018-03-29T00:13:58.523Z,5.00
2018-03-29T00:16:24.768Z,4.90
2018-03-29T00:18:50.996Z,5.00
2018-03-29T00:21:17.234Z,5.00
2018-03-29T00:23:43.447Z,4.90
2018-03-29T00:26:09.679Z,5.00
2018-03-29T00:28:35.891Z,5.00
2018-03-29T00:31:02.123Z,4.90
2018-03-29T00:33:29.079Z,4.90
2018-03-29T00:35:55.473Z,4.90
2018-03-29T00:38:21.695Z,4.90
2018-03-29T00:40:48.263Z,4.90
2018-03-29T00:43:14.483Z,4.90
2018-03-29T00:45:41.132Z,5.00
2018-03-29T00:48:07.359Z,5.00
2018-03-29T00:50:33.610Z,5.10
2018-03-29T00:53:11.935Z,5.10
2018-03-29T00:55:38.666Z,5.10
2018-03-29T00:58:04.914Z,5.10
2018-03-29T01:00:31.203Z,5.00
2018-03-29T01:02:57.454Z,5.00
2018-03-29T01:05:23.718Z,4.90
2018-03-29T01:07:49.959Z,4.90
2018-03-29T01:10:16.262Z,4.90
2018-03-29T01:12:42.506Z,4.90
2018-03-29T01:15:08.735Z,4.80
2018-03-29T01:17:40.967Z,4.80
2018-03-29T01:20:07.960Z,4.90
2018-03-29T01:22:34.223Z,4.90
2018-03-29T01:25:00.501Z,4.90
2018-03-29T01:27:26.781Z,5.00
2018-03-29T01:29:53.479Z,5.00
2018-03-29T01:32:31.903Z,5.10
2018-03-29T01:34:58.116Z,5.10
2018-03-29T01:37:24.372Z,5.10
2018-03-29T01:39:50.690Z,5.10
2018-03-29T01:42:16.956Z,5.10
2018-03-29T01:44:43.180Z,5.10
2018-03-29T01:47:09.495Z,5.20
2018-03-29T01:49:36.563Z,5.20
2018-03-29T01:52:02.787Z,5.20
2018-03-29T01:54:29.058Z,5.20
2018-03-29T01:56:55.285Z,5.20
2018-03-29T01:59:21.526Z,5.20
2018-03-29T02:01:48.492Z,5.20
2018-03-29T02:04:14.748Z,5.20
2018-03-29T02:06:40.989Z,5.20
2018-03-29T02:09:07.276Z,5.20
2018-03-29T02:11:34.242Z,5.20
2018-03-29T02:14:00.479Z,5.10
2018-03-29T02:16:27.015Z,5.20
2018-03-29T02:18:53.256Z,5.30
2018-03-29T02:21:19.487Z,5.20
2018-03-29T02:23:45.752Z,5.20
2018-03-29T02:26:11.984Z,5.30
2018-03-29T02:28:38.675Z,5.30
2018-03-29T02:31:04.907Z,5.30
2018-03-29T02:33:31.617Z,5.30
2018-03-29T02:35:58.587Z,5.20
2018-03-29T02:38:24.849Z,5.20
2018-03-29T02:40:51.259Z,5.10
2018-03-29T02:43:17.489Z,5.20
2018-03-29T02:45:43.739Z,5.10
2018-03-29T02:48:09.972Z,5.20
2018-03-29T02:50:36.227Z,5.20
2018-03-29T02:53:02.477Z,5.20
2018-03-29T02:55:29.127Z,5.20
2018-03-29T02:57:55.364Z,5.20
2018-03-29T03:00:21.635Z,5.20
2018-03-29T03:02:47.860Z,5.20
2018-03-29T03:05:14.100Z,5.20
2018-03-29T03:07:40.471Z,5.30
2018-03-29T03:10:06.767Z,5.20
2018-03-29T03:12:33.007Z,5.10
2018-03-29T03:14:59.248Z,5.10
2018-03-29T03:17:25.472Z,5.00
2018-03-29T03:19:52.528Z,5.10
2018-03-29T03:22:18.936Z,5.10
2018-03-29T03:24:45.200Z,5.10
2018-03-29T03:27:11.432Z,5.10
2018-03-29T03:29:37.672Z,5.20
2018-03-29T03:32:03.946Z,5.30
2018-03-29T03:34:30.159Z,5.30
2018-03-29T03:36:56.434Z,5.30
2018-03-29T03:39:22.667Z,5.30
2018-03-29T03:41:48.910Z,5.30
2018-03-29T03:44:15.137Z,5.30
2018-03-29T03:46:41.416Z,5.30
2018-03-29T03:49:07.659Z,5.20
2018-03-29T03:51:33.919Z,5.30
2018-03-29T03:54:00.142Z,5.30
2018-03-29T03:56:26.398Z,5.30
2018-03-29T03:58:52.621Z,5.30
2018-03-29T04:01:18.916Z,5.40
2018-03-29T04:03:45.138Z,5.40
2018-03-29T04:06:11.432Z,5.40
2018-03-29T04:08:37.922Z,5.30
2018-03-29T04:11:04.164Z,5.40
2018-03-29T04:13:30.637Z,5.40
2018-03-29T04:15:56.983Z,5.40
2018-03-29T04:18:23.183Z,5.40
2018-03-29T04:20:49.778Z,5.40
2018-03-29T04:23:16.027Z,5.40
2018-03-29T04:25:42.264Z,5.40
2018-03-29T04:28:08.779Z,5.40
2018-03-29T04:30:34.999Z,5.50
2018-03-29T04:33:01.307Z,5.40
2018-03-29T04:35:28.268Z,5.30
2018-03-29T04:37:54.524Z,5.30
2018-03-29T04:40:20.764Z,5.20
2018-03-29T04:42:47.019Z,5.20
2018-03-29T04:45:13.247Z,5.10
2018-03-29T04:47:39.533Z,5.00
2018-03-29T04:50:05.761Z,5.00
2018-03-29T04:52:32.072Z,5.00
2018-03-29T04:54:58.431Z,5.00
2018-03-29T04:57:24.808Z,4.90
2018-03-29T04:59:51.031Z,4.90
2018-03-29T05:02:17.699Z,4.80
2018-03-29T05:04:43.942Z,4.80
2018-03-29T05:07:10.919Z,4.80
2018-03-29T05:09:37.152Z,4.70
2018-03-29T05:12:03.439Z,4.80
2018-03-29T05:14:29.679Z,4.70
2018-03-29T05:16:56.655Z,4.70
2018-03-29T05:19:22.904Z,4.60
2018-03-29T05:21:49.135Z,4.70
2018-03-29T05:24:15.393Z,4.70
2018-03-29T05:26:41.682Z,4.70
2018-03-29T05:29:07.913Z,4.70
2018-03-29T05:31:34.136Z,4.70
2018-03-29T05:34:01.003Z,4.70
2018-03-29T05:36:27.271Z,4.70
2018-03-29T05:38:53.556Z,4.70
2018-03-29T05:41:19.843Z,4.70
2018-03-29T05:43:46.116Z,4.70
2018-03-29T05:46:12.339Z,4.80
2018-03-29T05:48:38.590Z,4.80
2018-03-29T05:51:05.257Z,4.80
2018-03-29T05:53:31.520Z,4.80
2018-03-29T05:55:57.836Z,4.90
2018-03-29T05:58:24.071Z,4.90
2018-03-29T06:00:50.584Z,5.00
2018-03-29T06:03:16.812Z,5.00
2018-03-29T06:05:43.456Z,5.00
2018-03-29T06:08:09.735Z,5.10
2018-03-29T06:10:36.459Z,5.10
2018-03-29T06:13:02.689Z,5.10
2018-03-29T06:15:31.930Z,5.10
2018-03-29T06:18:00.087Z,5.20
2018-03-29T06:20:26.380Z,5.30
2018-03-29T06:22:53.524Z,5.50
2018-03-29T06:25:19.796Z,5.60
2018-03-29T06:27:46.043Z,5.60
2018-03-29T06:30:13.631Z,5.60
2018-03-29T06:32:39.934Z,5.70
2018-03-29T06:35:06.206Z,5.60
2018-03-29T06:37:32.436Z,5.60
2018-03-29T06:40:01.049Z,5.70
2018-03-29T06:42:27.331Z,5.70
2018-03-29T06:44:53.575Z,5.70
2018-03-29T06:47:19.795Z,5.70
2018-03-29T06:49:46.024Z,5.80
2018-03-29T06:52:12.781Z,5.90
2018-03-29T06:54:39.055Z,6.00
2018-03-29T06:57:06.047Z,6.30
2018-03-29T06:59:32.992Z,6.30
2018-03-29T07:01:59.531Z,6.30
2018-03-29T07:04:25.787Z,6.40
2018-03-29T07:06:52.036Z,6.50
2018-03-29T07:09:19.135Z,6.40
2018-03-29T07:11:45.380Z,6.40
2018-03-29T07:14:11.611Z,6.40
2018-03-29T07:16:37.843Z,6.40
2018-03-29T07:19:04.208Z,6.50
2018-03-29T07:21:30.448Z,6.60
2018-03-29T07:23:57.516Z,6.60
2018-03-29T07:26:23.755Z,6.60
2018-03-29T07:28:50.107Z,6.70
2018-03-29T07:31:16.379Z,6.70
2018-03-29T07:33:42.657Z,6.80
2018-03-29T07:36:08.885Z,6.80
2018-03-29T07:38:35.130Z,6.90
2018-03-29T07:41:01.400Z,6.80
2018-03-29T07:43:27.639Z,6.80
2018-03-29T07:45:53.894Z,6.80
2018-03-29T07:48:20.135Z,6.70
2018-03-29T07:50:47.584Z,6.70
2018-03-29T07:53:13.834Z,6.80
2018-03-29T07:55:40.254Z,6.80
2018-03-29T07:58:06.799Z,6.80
2018-03-29T08:00:37.784Z,7.00
2018-03-29T08:03:04.303Z,7.00
2018-03-29T08:05:30.539Z,7.00
2018-03-29T08:07:59.017Z,6.90
2018-03-29T08:10:25.235Z,6.80
2018-03-29T08:12:51.477Z,6.80
2018-03-29T08:15:17.788Z,6.80
2018-03-29T08:17:44.082Z,6.80
2018-03-29T08:20:11.043Z,7.00
2018-03-29T08:22:38.418Z,7.00
2018-03-29T08:25:04.651Z,7.00
2018-03-29T08:27:30.868Z,7.10
2018-03-29T08:29:57.851Z,7.50
2018-03-29T08:32:24.127Z,7.40
2018-03-29T08:34:50.362Z,7.50
2018-03-29T08:37:16.656Z,7.50
2018-03-29T08:39:42.887Z,7.50
2018-03-29T08:42:09.115Z,7.60
2018-03-29T08:44:35.366Z,7.80
2018-03-29T08:47:01.593Z,7.90
2018-03-29T08:49:27.839Z,8.00
2018-03-29T08:51:54.080Z,8.10
2018-03-29T08:54:24.127Z,8.10
2018-03-29T08:56:50.363Z,8.10
2018-03-29T08:59:16.616Z,8.30
2018-03-29T09:01:42.833Z,8.30
2018-03-29T09:04:09.184Z,8.30
2018-03-29T09:06:35.395Z,8.30
2018-03-29T09:09:01.636Z,8.30
2018-03-29T09:11:27.855Z,8.30
2018-03-29T09:13:54.098Z,8.30
2018-03-29T09:16:20.679Z,8.20
2018-03-29T09:18:47.665Z,8.20
2018-03-29T09:21:13.895Z,8.10
2018-03-29T09:23:40.119Z,8.30
2018-03-29T09:26:06.380Z,8.40
2018-03-29T09:28:32.594Z,8.40
2018-03-29T09:30:58.847Z,8.50
2018-03-29T09:33:25.070Z,8.50
2018-03-29T09:35:51.728Z,8.50
2018-03-29T09:38:17.952Z,8.40
2018-03-29T09:40:44.285Z,8.40
2018-03-29T09:43:10.508Z,8.60
2018-03-29T09:45:36.747Z,8.70
2018-03-29T09:48:03.002Z,8.70
2018-03-29T09:50:29.863Z,9.00
2018-03-29T09:52:56.100Z,9.00
2018-03-29T09:55:22.342Z,9.00
2018-03-29T09:57:48.563Z,9.20
2018-03-29T10:00:14.847Z,9.30
2018-03-29T10:02:47.323Z,9.60
2018-03-29T10:05:13.719Z,9.70
2018-03-29T10:07:40.167Z,9.40
2018-03-29T10:10:06.444Z,9.10
2018-03-29T10:12:32.711Z,9.00
2018-03-29T10:14:59.087Z,8.90
2018-03-29T10:17:25.342Z,8.70
2018-03-29T10:19:52.371Z,8.70
2018-03-29T10:22:18.610Z,8.60
2018-03-29T10:24:44.839Z,8.50
2018-03-29T10:27:11.123Z,8.50
2018-03-29T10:29:37.423Z,8.60
2018-03-29T10:32:03.688Z,8.70
2018-03-29T10:34:30.010Z,8.70
2018-03-29T10:36:56.256Z,8.70
2018-03-29T10:39:22.607Z,8.70
2018-03-29T10:41:48.851Z,8.70
2018-03-29T10:44:15.088Z,8.50
2018-03-29T10:46:41.340Z,8.40
2018-03-29T10:49:07.858Z,8.40
2018-03-29T10:51:34.109Z,8.40
2018-03-29T10:54:00.521Z,8.50
2018-03-29T10:56:26.769Z,8.50
2018-03-29T10:58:53.012Z,8.60
2018-03-29T11:01:19.275Z,8.90
2018-03-29T11:03:45.519Z,9.30
2018-03-29T11:06:12.886Z,9.70
2018-03-29T11:08:39.123Z,9.90
2018-03-29T11:11:05.994Z,10.10
2018-03-29T11:13:33.544Z,10.00
2018-03-29T11:15:59.841Z,9.90
2018-03-29T11:18:26.227Z,9.80
2018-03-29T11:20:52.500Z,10.30
2018-03-29T11:23:18.770Z,10.70
2018-03-29T11:25:45.823Z,10.90
2018-03-29T11:28:12.824Z,11.00
2018-03-29T11:30:39.048Z,10.90
2018-03-29T11:33:05.327Z,10.90
2018-03-29T11:35:31.700Z,10.70
2018-03-29T11:37:58.215Z,10.40
2018-03-29T11:40:25.355Z,10.10
2018-03-29T11:42:52.975Z,9.90
2018-03-29T11:45:19.356Z,9.90
2018-03-29T11:47:46.494Z,10.40
2018-03-29T11:50:12.739Z,10.40
2018-03-29T11:52:39.056Z,10.20
2018-03-29T11:55:05.327Z,10.20
2018-03-29T11:57:32.023Z,10.20
2018-03-29T11:59:58.273Z,10.50
2018-03-29T12:02:24.535Z,10.70
2018-03-29T12:04:50.772Z,10.90
2018-03-29T12:07:17.720Z,11.10
2018-03-29T12:09:43.967Z,11.10
2018-03-29T12:12:10.223Z,11.40
2018-03-29T12:14:36.509Z,11.50
2018-03-29T12:17:03.100Z,11.60
2018-03-29T12:19:29.351Z,12.00
2018-03-29T12:21:55.688Z,12.10
2018-03-29T12:24:21.956Z,12.20
2018-03-29T12:26:48.319Z,12.10
2018-03-29T12:29:14.572Z,12.10
2018-03-29T12:31:41.095Z,12.70
2018-03-29T12:34:07.357Z,12.50
2018-03-29T12:36:33.643Z,12.60
2018-03-29T12:38:59.870Z,12.40
2018-03-29T12:41:26.102Z,12.60
2018-03-29T12:43:52.326Z,12.90
2018-03-29T12:46:18.615Z,12.90
2018-03-29T12:48:44.961Z,12.40
2018-03-29T12:51:11.236Z,12.10
2018-03-29T12:53:37.456Z,12.30
2018-03-29T12:56:03.751Z,12.60
2018-03-29T12:58:30.072Z,12.30
2018-03-29T13:00:58.378Z,11.80
2018-03-29T13:03:24.619Z,11.10
2018-03-29T13:05:51.001Z,10.80
2018-03-29T13:08:17.415Z,10.60
2018-03-29T13:10:43.678Z,10.50
2018-03-29T13:13:10.019Z,10.70
2018-03-29T13:15:36.316Z,10.70
2018-03-29T13:18:02.587Z,10.60
2018-03-29T13:20:28.816Z,10.20
2018-03-29T13:22:55.203Z,10.30
2018-03-29T13:25:21.468Z,10.50
2018-03-29T13:27:47.699Z,11.00
2018-03-29T13:30:13.914Z,11.50
2018-03-29T13:32:40.176Z,11.80
2018-03-29T13:35:06.389Z,12.40
2018-03-29T13:37:33.666Z,13.20
2018-03-29T13:39:59.909Z,13.20
2018-03-29T13:42:26.200Z,13.80
2018-03-29T13:44:53.283Z,14.80
2018-03-29T13:47:19.971Z,14.70
2018-03-29T13:49:46.225Z,15.10
2018-03-29T13:52:12.498Z,14.80
2018-03-29T13:54:38.747Z,14.60
2018-03-29T13:57:05.047Z,14.70
2018-03-29T13:59:31.303Z,15.20
2018-03-29T14:01:57.587Z,14.70
2018-03-29T14:04:23.807Z,14.10
2018-03-29T14:06:50.461Z,13.60
2018-03-29T14:09:16.679Z,13.10
2018-03-29T14:11:43.023Z,12.50
2018-03-29T14:14:09.258Z,12.00
2018-03-29T14:16:36.236Z,12.50
2018-03-29T14:19:02.512Z,12.50
2018-03-29T14:21:29.744Z,15.70
2018-03-29T14:23:56.016Z,19.70
2018-03-29T14:26:22.239Z,22.70
2018-03-29T14:28:48.513Z,22.10
2018-03-29T14:31:14.760Z,19.90
2018-03-29T14:33:41.027Z,17.60
2018-03-29T14:36:07.231Z,18.60
2018-03-29T14:38:33.490Z,20.10
2018-03-29T14:40:59.866Z,20.50
2018-03-29T14:43:26.119Z,21.50
2018-03-29T14:45:52.455Z,22.90
2018-03-29T14:48:18.709Z,22.30
2018-03-29T14:50:44.944Z,22.80
2018-03-29T14:53:11.231Z,20.90
2018-03-29T14:55:37.475Z,18.60
2018-03-29T14:58:03.787Z,17.00
2018-03-29T15:00:30.039Z,15.70
2018-03-29T15:02:56.288Z,15.10
2018-03-29T15:05:22.580Z,15.00
2018-03-29T15:07:48.823Z,17.80
2018-03-29T15:10:15.064Z,21.20
2018-03-29T15:12:41.312Z,23.70
2018-03-29T15:15:07.565Z,25.90
2018-03-29T15:17:33.786Z,26.70
2018-03-29T15:20:00.064Z,27.10
2018-03-29T15:22:26.303Z,27.00
2018-03-29T15:24:52.555Z,27.50
2018-03-29T15:27:18.774Z,27.80
2018-03-29T15:29:45.087Z,27.30
2018-03-29T15:32:11.319Z,27.50
2018-03-29T15:34:37.567Z,27.80
2018-03-29T15:37:04.120Z,27.70
2018-03-29T15:39:30.364Z,28.40
2018-03-29T15:41:56.673Z,29.00
2018-03-29T15:44:22.923Z,29.30
2018-03-29T15:46:49.234Z,29.10
2018-03-29T15:49:15.477Z,27.40
2018-03-29T15:51:41.730Z,24.20
2018-03-29T15:54:07.972Z,21.80
2018-03-29T15:56:34.222Z,21.60
2018-03-29T15:59:00.448Z,22.60
2018-03-29T16:01:27.419Z,22.80
2018-03-29T16:03:53.643Z,22.70
2018-03-29T16:06:19.927Z,22.20
2018-03-29T16:08:46.140Z,22.20
2018-03-29T16:11:13.528Z,21.40
2018-03-29T16:13:40.516Z,20.80
2018-03-29T16:16:06.782Z,20.20
2018-03-29T16:18:33.226Z,21.30
2018-03-29T16:20:59.505Z,22.60
2018-03-29T16:23:25.839Z,22.30
2018-03-29T16:25:52.082Z,21.20
2018-03-29T16:28:18.475Z,19.40
2018-03-29T16:30:44.726Z,18.20
2018-03-29T16:33:10.962Z,16.90
2018-03-29T16:35:37.945Z,17.90
2018-03-29T16:38:04.222Z,17.90
2018-03-29T16:40:30.741Z,19.20
2018-03-29T16:42:57.882Z,19.40
2018-03-29T16:45:24.138Z,18.60
2018-03-29T16:47:50.363Z,17.80
2018-03-29T16:50:16.583Z,16.90
2018-03-29T16:52:43.579Z,15.40
2018-03-29T16:55:09.849Z,15.30
2018-03-29T16:57:36.103Z,15.10
2018-03-29T17:00:02.677Z,15.60
2018-03-29T17:02:28.918Z,16.60
2018-03-29T17:04:55.135Z,16.70
2018-03-29T17:07:22.187Z,16.60
2018-03-29T17:09:48.405Z,16.50
2018-03-29T17:12:15.626Z,16.20
2018-03-29T17:14:42.150Z,16.20
2018-03-29T17:17:08.384Z,16.20
2018-03-29T17:19:34.598Z,16.80
2018-03-29T17:22:00.827Z,17.80
2018-03-29T17:24:27.043Z,18.10
2018-03-29T17:26:53.322Z,17.80
2018-03-29T17:29:19.540Z,16.70
2018-03-29T17:31:45.814Z,15.40
2018-03-29T17:34:12.068Z,14.20
2018-03-29T17:36:38.315Z,13.40
2018-03-29T17:39:05.502Z,12.80
2018-03-29T17:41:31.899Z,12.40
2018-03-29T17:43:58.136Z,11.90
2018-03-29T17:46:24.358Z,11.50
2018-03-29T17:48:50.604Z,11.30
2018-03-29T17:51:17.307Z,11.00
2018-03-29T17:53:43.563Z,10.90
2018-03-29T17:56:10.036Z,10.90
2018-03-29T17:58:36.275Z,10.60
2018-03-29T18:01:02.900Z,10.50
2018-03-29T18:03:29.130Z,10.40
2018-03-29T18:05:55.387Z,10.30
2018-03-29T18:08:21.640Z,10.30
2018-03-29T18:10:47.871Z,10.20
2018-03-29T18:13:14.102Z,10.00
2018-03-29T18:15:40.407Z,9.90
2018-03-29T18:18:07.384Z,9.60
2018-03-29T18:20:33.612Z,9.60
2018-03-29T18:22:59.851Z,9.60
2018-03-29T18:25:26.127Z,9.60
2018-03-29T18:27:52.346Z,9.50
2018-03-29T18:30:18.724Z,9.50
2018-03-29T18:32:44.951Z,9.50
2018-03-29T18:35:11.197Z,9.40
2018-03-29T18:37:37.440Z,9.30
2018-03-29T18:40:03.724Z,9.20
2018-03-29T18:42:29.960Z,9.20
2018-03-29T18:44:56.216Z,9.10
2018-03-29T18:47:22.431Z,9.10
2018-03-29T18:49:48.732Z,9.00
2018-03-29T18:52:14.962Z,9.00
2018-03-29T18:54:41.209Z,8.90
2018-03-29T18:57:08.172Z,8.90
2018-03-29T18:59:34.578Z,8.90
2018-03-29T19:02:00.855Z,8.80
2018-03-29T19:04:28.955Z,8.80
2018-03-29T19:06:56.693Z,8.70
2018-03-29T19:09:23.004Z,8.70
2018-03-29T19:11:49.228Z,8.60
2018-03-29T19:14:15.503Z,8.60
2018-03-29T19:16:41.726Z,8.50
2018-03-29T19:19:07.951Z,8.50
2018-03-29T19:21:34.273Z,8.50
2018-03-29T19:24:00.495Z,8.40
2018-03-29T19:26:26.815Z,8.40
2018-03-29T19:28:53.040Z,8.30
2018-03-29T19:31:19.292Z,8.20
2018-03-29T19:33:45.771Z,8.20
2018-03-29T19:36:14.147Z,8.20
2018-03-29T19:38:40.416Z,8.20
2018-03-29T19:41:06.659Z,8.20
2018-03-29T19:43:32.871Z,8.20
2018-03-29T19:45:59.167Z,8.20
2018-03-29T19:48:25.386Z,8.00
2018-03-29T19:50:51.660Z,8.10
2018-03-29T19:53:18.374Z,8.00
2018-03-29T19:55:44.788Z,7.90
2018-03-29T19:58:11.016Z,7.90
2018-03-29T20:00:37.711Z,7.90
2018-03-29T20:03:04.043Z,7.80
2018-03-29T20:05:31.103Z,7.80
2018-03-29T20:07:57.487Z,7.80
2018-03-29T20:10:23.723Z,7.80
2018-03-29T20:12:50.076Z,7.70
2018-03-29T20:15:16.342Z,7.80
2018-03-29T20:17:42.633Z,7.80
2018-03-29T20:20:08.912Z,7.80
2018-03-29T20:22:35.203Z,7.80
2018-03-29T20:25:09.031Z,7.70
2018-03-29T20:27:35.479Z,7.60
2018-03-29T20:30:01.743Z,7.60
2018-03-29T20:32:28.006Z,7.50
2018-03-29T20:34:54.267Z,7.50
2018-03-29T20:37:21.284Z,7.40
2018-03-29T20:39:47.536Z,7.40
2018-03-29T20:42:13.813Z,7.30
2018-03-29T20:44:40.726Z,7.30
2018-03-29T20:47:06.996Z,7.20
2018-03-29T20:49:33.250Z,7.20
2018-03-29T20:51:59.591Z,7.10
2018-03-29T20:54:25.859Z,7.10
2018-03-29T20:56:52.107Z,7.00
2018-03-29T20:59:18.357Z,7.00
2018-03-29T21:01:44.595Z,7.00
2018-03-29T21:04:10.895Z,6.90
2018-03-29T21:06:38.048Z,6.80
2018-03-29T21:09:05.283Z,6.80
2018-03-29T21:11:31.645Z,6.70
2018-03-29T21:13:57.896Z,6.70
2018-03-29T21:16:24.279Z,6.70
2018-03-29T21:18:50.577Z,6.80
2018-03-29T21:21:16.817Z,6.70
2018-03-29T21:23:43.630Z,6.60
2018-03-29T21:26:09.908Z,6.50
2018-03-29T21:28:36.215Z,6.40
2018-03-29T21:31:02.564Z,6.40
2018-03-29T21:33:28.815Z,6.30
2018-03-29T21:35:55.079Z,6.30
2018-03-29T21:38:21.358Z,6.30
2018-03-29T21:40:47.611Z,6.20
2018-03-29T21:43:13.883Z,6.10
2018-03-29T21:45:40.124Z,6.20
2018-03-29T21:48:06.399Z,6.20
2018-03-29T21:50:32.672Z,6.20
2018-03-29T21:52:59.034Z,6.20
2018-03-29T21:55:25.300Z,6.30
2018-03-29T21:57:51.560Z,6.20
2018-03-29T22:00:17.809Z,6.20
2018-03-29T22:02:44.076Z,6.20
2018-03-29T22:05:10.318Z,6.30
2018-03-29T22:07:36.564Z,6.20
2018-03-29T22:10:02.846Z,6.20
2018-03-29T22:12:29.101Z,6.20
2018-03-29T22:14:56.122Z,6.20
2018-03-29T22:17:22.362Z,6.20
2018-03-29T22:19:48.652Z,6.20
2018-03-29T22:22:14.879Z,6.20
2018-03-29T22:24:41.359Z,6.10
2018-03-29T22:27:07.575Z,6.10
2018-03-29T22:29:34.248Z,6.20
2018-03-29T22:32:00.525Z,6.10
2018-03-29T22:34:27.256Z,6.20
2018-03-29T22:36:53.507Z,6.20
2018-03-29T22:39:19.754Z,6.20
2018-03-29T22:41:46.576Z,6.20
2018-03-29T22:44:12.831Z,6.20
2018-03-29T22:46:39.086Z,6.20
2018-03-29T22:49:05.323Z,6.20
2018-03-29T22:51:31.700Z,6.20
2018-03-29T22:53:57.998Z,6.20
2018-03-29T22:56:24.342Z,6.20
2018-03-29T22:58:50.617Z,6.30
2018-03-29T23:01:16.876Z,6.30
2018-03-29T23:03:43.299Z,6.30
2018-03-29T23:06:09.568Z,6.30
2018-03-29T23:08:36.610Z,6.40
2018-03-29T23:11:02.982Z,6.40
2018-03-29T23:13:29.296Z,6.40
2018-03-29T23:15:55.552Z,6.50
2018-03-29T23:18:22.803Z,6.50
2018-03-29T23:20:49.514Z,6.50
2018-03-29T23:23:15.798Z,6.60
2018-03-29T23:25:42.066Z,6.60
2018-03-29T23:28:08.327Z,6.60
2018-03-29T23:30:34.585Z,6.60
2018-03-29T23:33:01.593Z,6.60
2018-03-29T23:35:27.923Z,6.60
2018-03-29T23:37:54.266Z,6.60
2018-03-29T23:40:21.507Z,6.60
2018-03-29T23:42:47.800Z,6.60
2018-03-29T23:45:14.335Z,6.60
2018-03-29T23:47:40.580Z,6.70
2018-03-29T23:50:07.326Z,6.70
2018-03-29T23:52:33.605Z,6.70
2018-03-29T23:55:00.365Z,6.80
2018-03-29T23:57:26.628Z,6.70
2018-03-29T23:59:52.921Z,6.70
